createdAt,value
2019-01-15T00:00:52.172Z,70.55
2019-01-15T00:03:22.199Z,70.59
2019-01-15T00:05:51.993Z,70.35
2019-01-15T00:08:21.664Z,70.49
2019-01-15T00:10:51.330Z,70.75
2019-01-15T00:13:20.938Z,71.19
2019-01-15T00:15:50.516Z,71.06
2019-01-15T00:18:20.451Z,71.14
2019-01-15T00:20:50.159Z,71.17
2019-01-15T00:23:19.855Z,71.42
2019-01-15T00:25:49.647Z,71.63
2019-01-15T00:28:19.256Z,71.54
2019-01-15T00:30:48.988Z,71.89
2019-01-15T00:33:18.780Z,72.37
2019-01-15T00:35:48.502Z,72.54
2019-01-15T00:38:18.345Z,72.62
2019-01-15T00:40:48.123Z,72.40
2019-01-15T00:43:17.799Z,72.64
2019-01-15T00:45:47.818Z,72.98
2019-01-15T00:48:17.427Z,73.03
2019-01-15T00:50:47.203Z,73.30
2019-01-15T00:53:16.826Z,73.11
2019-01-15T00:55:46.564Z,73.26
2019-01-15T00:58:16.249Z,73.59
2019-01-15T01:00:46.006Z,73.77
2019-01-15T01:03:15.575Z,74.21
2019-01-15T01:05:45.762Z,74.21
2019-01-15T01:08:15.561Z,74.36
2019-01-15T01:10:45.341Z,74.40
2019-01-15T01:13:14.931Z,74.39
2019-01-15T01:15:44.718Z,74.48
2019-01-15T01:18:14.420Z,74.50
2019-01-15T01:20:45.101Z,74.79
2019-01-15T01:23:15.196Z,74.94
2019-01-15T01:25:45.075Z,75.11
2019-01-15T01:28:14.707Z,75.31
2019-01-15T01:30:44.559Z,75.48
2019-01-15T01:33:14.461Z,75.63
2019-01-15T01:35:45.210Z,76.04
2019-01-15T01:38:14.924Z,75.73
2019-01-15T01:40:44.581Z,75.78
2019-01-15T01:43:14.478Z,75.96
2019-01-15T01:45:44.212Z,75.77
2019-01-15T01:48:13.761Z,75.71
2019-01-15T01:50:43.610Z,75.45
2019-01-15T01:53:13.255Z,75.42
2019-01-15T01:55:42.991Z,75.04
2019-01-15T01:58:13.016Z,74.77
2019-01-15T02:00:42.691Z,74.67
2019-01-15T02:03:12.386Z,75.01
2019-01-15T02:05:42.245Z,74.93
2019-01-15T02:08:11.931Z,75.37
2019-01-15T02:10:41.782Z,75.40
2019-01-15T02:13:11.386Z,75.62
2019-01-15T02:15:41.564Z,75.60
2019-01-15T02:18:11.553Z,75.64
2019-01-15T02:20:41.200Z,75.73
2019-01-15T02:23:11.119Z,75.91
2019-01-15T02:25:40.908Z,75.97
2019-01-15T02:28:10.672Z,76.04
2019-01-15T02:30:40.764Z,75.88
2019-01-15T02:33:10.868Z,75.88
2019-01-15T02:35:40.503Z,76.14
2019-01-15T02:38:10.418Z,75.84
2019-01-15T02:40:40.115Z,75.80
2019-01-15T02:43:12.352Z,75.70
2019-01-15T02:45:42.054Z,76.27
2019-01-15T02:48:12.856Z,76.52
2019-01-15T02:50:42.931Z,76.79
2019-01-15T02:54:03.170Z,76.65
2019-01-15T02:56:33.015Z,76.80
2019-01-15T02:59:09.220Z,77.02
2019-01-15T03:01:38.890Z,76.73
2019-01-15T03:04:08.645Z,76.12
2019-01-15T03:06:38.363Z,76.03
2019-01-15T03:09:08.370Z,75.99
2019-01-15T03:11:38.750Z,75.43
2019-01-15T03:14:09.487Z,75.32
2019-01-15T03:16:40.297Z,74.93
2019-01-15T03:19:11.003Z,74.58
2019-01-15T03:21:41.250Z,74.18
2019-01-15T03:24:11.327Z,74.29
2019-01-15T03:26:40.992Z,74.24
2019-01-15T03:29:10.883Z,74.17
2019-01-15T03:31:41.255Z,73.89
2019-01-15T03:34:11.132Z,73.15
2019-01-15T03:36:40.866Z,73.54
2019-01-15T03:39:10.878Z,73.50
2019-01-15T03:41:40.876Z,73.28
2019-01-15T03:44:10.873Z,72.96
2019-01-15T03:46:41.236Z,72.91
2019-01-15T03:49:11.699Z,72.73
2019-01-15T03:51:41.593Z,72.95
2019-01-15T03:54:11.500Z,73.12
2019-01-15T03:56:41.106Z,72.62
2019-01-15T03:59:11.287Z,72.48
2019-01-15T04:01:41.077Z,72.44
2019-01-15T04:04:11.793Z,72.53
2019-01-15T04:06:41.931Z,72.59
2019-01-15T04:09:12.096Z,72.45
2019-01-15T04:11:41.826Z,72.56
2019-01-15T04:14:11.529Z,72.50
2019-01-15T04:16:41.258Z,72.68
2019-01-15T04:19:11.232Z,72.68
2019-01-15T04:21:41.278Z,72.83
2019-01-15T04:24:11.097Z,73.07
2019-01-15T04:26:41.509Z,73.26
2019-01-15T04:29:11.759Z,73.66
2019-01-15T04:31:41.794Z,73.89
2019-01-15T04:34:15.228Z,74.04
2019-01-15T04:36:45.784Z,73.83
2019-01-15T04:39:15.564Z,74.36
2019-01-15T04:41:45.335Z,74.48
2019-01-15T04:44:16.001Z,74.25
2019-01-15T04:46:45.783Z,74.55
2019-01-15T04:49:17.998Z,74.97
2019-01-15T04:51:48.412Z,75.22
2019-01-15T04:54:18.129Z,75.67
2019-01-15T04:56:48.017Z,77.03
2019-01-15T04:59:19.785Z,77.85
2019-01-15T05:01:49.736Z,78.28
2019-01-15T05:04:19.765Z,78.35
2019-01-15T05:06:49.715Z,78.33
2019-01-15T05:09:20.145Z,78.61
2019-01-15T05:11:50.343Z,79.05
2019-01-15T05:14:20.621Z,79.40
2019-01-15T05:16:50.276Z,79.26
2019-01-15T05:19:20.229Z,79.90
2019-01-15T05:21:50.094Z,80.48
2019-01-15T05:24:20.240Z,80.62
2019-01-15T05:26:50.457Z,81.05
2019-01-15T05:29:23.191Z,81.50
2019-01-15T05:31:53.530Z,81.55
2019-01-15T05:34:23.710Z,81.89
2019-01-15T05:36:53.795Z,81.45
2019-01-15T05:39:23.580Z,81.71
2019-01-15T05:41:54.228Z,81.39
2019-01-15T05:44:24.308Z,81.24
2019-01-15T05:46:54.337Z,81.45
2019-01-15T05:49:24.758Z,81.10
2019-01-15T05:51:56.752Z,81.17
2019-01-15T05:54:26.909Z,81.17
2019-01-15T05:56:57.679Z,80.54
2019-01-15T05:59:30.896Z,80.30
2019-01-15T06:02:00.964Z,80.23
2019-01-15T06:04:31.113Z,80.55
2019-01-15T06:07:00.900Z,80.63
2019-01-15T06:09:31.017Z,80.80
2019-01-15T06:12:01.232Z,80.73
2019-01-15T06:14:31.306Z,81.07
2019-01-15T06:17:01.860Z,80.96
2019-01-15T06:19:32.497Z,81.17
2019-01-15T06:22:02.559Z,81.00
2019-01-15T06:24:34.177Z,80.95
2019-01-15T06:27:06.298Z,80.99
2019-01-15T06:29:36.641Z,81.17
2019-01-15T06:32:06.336Z,81.29
2019-01-15T06:34:35.950Z,81.42
2019-01-15T06:37:05.561Z,81.66
2019-01-15T06:39:35.135Z,81.82
2019-01-15T06:42:04.999Z,81.94
2019-01-15T06:44:37.304Z,82.08
2019-01-15T06:47:08.617Z,82.19
2019-01-15T06:49:38.364Z,82.15
2019-01-15T06:52:08.670Z,82.29
2019-01-15T06:54:38.341Z,82.38
2019-01-15T06:57:08.251Z,82.65
2019-01-15T06:59:46.898Z,82.89
2019-01-15T07:02:19.762Z,82.73
2019-01-15T07:04:52.940Z,82.70
2019-01-15T07:07:22.555Z,83.05
2019-01-15T07:09:52.059Z,83.04
2019-01-15T07:12:21.608Z,82.96
2019-01-15T07:14:51.158Z,82.95
2019-01-15T07:17:20.778Z,83.03
2019-01-15T07:19:50.608Z,83.17
2019-01-15T07:22:20.202Z,83.19
2019-01-15T07:24:49.734Z,83.06
2019-01-15T07:27:19.326Z,83.22
2019-01-15T07:29:48.880Z,82.96
2019-01-15T07:32:18.429Z,83.10
2019-01-15T07:34:48.141Z,82.98
2019-01-15T07:37:17.737Z,82.81
2019-01-15T07:39:47.613Z,82.44
2019-01-15T07:42:17.257Z,82.37
2019-01-15T07:44:46.968Z,82.43
2019-01-15T07:47:25.171Z,82.19
2019-01-15T07:49:54.679Z,82.69
2019-01-15T07:52:24.390Z,82.62
2019-01-15T07:54:53.842Z,82.36
2019-01-15T07:57:23.458Z,82.35
2019-01-15T07:59:53.054Z,82.37
2019-01-15T08:02:22.608Z,82.55
2019-01-15T08:04:52.245Z,82.09
2019-01-15T08:07:21.782Z,82.33
2019-01-15T08:09:51.233Z,82.39
2019-01-15T08:12:20.695Z,82.39
2019-01-15T08:14:50.185Z,82.52
2019-01-15T08:17:20.077Z,83.07
2019-01-15T08:19:49.551Z,82.77
2019-01-15T08:22:19.026Z,82.65
2019-01-15T08:24:48.516Z,82.52
2019-01-15T08:27:18.048Z,82.66
2019-01-15T08:29:47.605Z,82.59
2019-01-15T08:32:17.072Z,82.56
2019-01-15T08:34:46.578Z,82.67
2019-01-15T08:37:16.076Z,82.81
2019-01-15T08:39:45.557Z,82.69
2019-01-15T08:42:15.036Z,82.92
2019-01-15T08:44:44.655Z,82.52
2019-01-15T08:47:14.257Z,82.45
2019-01-15T08:49:43.759Z,82.60
2019-01-15T08:52:13.354Z,82.57
2019-01-15T08:54:42.847Z,82.82
2019-01-15T08:57:12.317Z,82.62
2019-01-15T08:59:41.881Z,82.63
2019-01-15T09:02:11.391Z,82.32
2019-01-15T09:04:40.927Z,82.37
2019-01-15T09:07:10.400Z,82.23
2019-01-15T09:09:39.913Z,82.11
2019-01-15T09:12:09.415Z,82.09
2019-01-15T09:14:40.038Z,82.14
2019-01-15T09:17:11.125Z,81.93
2019-01-15T09:19:40.747Z,82.01
2019-01-15T09:22:10.601Z,82.09
2019-01-15T09:24:40.146Z,82.18
2019-01-15T09:27:09.729Z,82.47
2019-01-15T09:29:39.249Z,82.42
2019-01-15T09:32:08.831Z,82.27
2019-01-15T09:34:38.452Z,82.10
2019-01-15T09:37:09.573Z,82.33
2019-01-15T09:39:39.241Z,82.01
2019-01-15T09:42:08.945Z,82.25
2019-01-15T09:44:38.679Z,82.56
2019-01-15T09:47:08.251Z,82.54
2019-01-15T09:49:37.805Z,82.45
2019-01-15T09:52:12.959Z,82.90
2019-01-15T09:54:38.594Z,82.71
2019-01-15T09:57:08.127Z,82.84
2019-01-15T09:59:37.723Z,83.08
2019-01-15T10:02:07.342Z,83.38
2019-01-15T10:04:36.863Z,83.57
2019-01-15T10:07:06.512Z,83.86
2019-01-15T10:09:36.245Z,84.19
2019-01-15T10:12:05.742Z,84.47
2019-01-15T10:14:41.222Z,84.29
2019-01-15T10:17:06.489Z,85.02
2019-01-15T10:19:36.149Z,85.02
2019-01-15T10:22:05.867Z,85.03
2019-01-15T10:24:35.785Z,84.98
2019-01-15T10:27:05.705Z,85.00
2019-01-15T10:29:35.774Z,84.94
2019-01-15T10:32:31.519Z,84.97
2019-01-15T10:35:04.497Z,85.35
2019-01-15T10:37:34.097Z,85.37
2019-01-15T10:40:05.020Z,85.20
2019-01-15T10:42:34.591Z,85.48
2019-01-15T10:45:06.268Z,85.55
2019-01-15T10:47:35.840Z,85.29
2019-01-15T10:50:11.347Z,85.44
2019-01-15T10:52:40.939Z,85.54
2019-01-15T10:55:10.548Z,85.46
2019-01-15T10:57:40.166Z,85.80
2019-01-15T11:00:13.053Z,86.03
2019-01-15T11:02:42.695Z,86.17
2019-01-15T11:05:12.582Z,85.97
2019-01-15T11:07:42.127Z,85.96
2019-01-15T11:10:14.912Z,86.10
2019-01-15T11:12:44.428Z,86.45
2019-01-15T11:15:14.059Z,86.08
2019-01-15T11:17:43.682Z,86.06
2019-01-15T11:20:16.422Z,85.91
2019-01-15T11:22:46.073Z,85.89
2019-01-15T11:25:15.666Z,86.24
2019-01-15T11:27:45.275Z,86.14
2019-01-15T11:30:15.397Z,86.46
2019-01-15T11:32:44.914Z,86.42
2019-01-15T11:35:14.582Z,86.28
2019-01-15T11:37:44.276Z,86.16
2019-01-15T11:40:15.682Z,86.25
2019-01-15T11:42:45.223Z,85.91
2019-01-15T11:45:21.161Z,86.20
2019-01-15T11:47:51.187Z,86.42
2019-01-15T11:50:23.767Z,86.11
2019-01-15T11:52:53.655Z,86.11
2019-01-15T11:55:23.246Z,86.36
2019-01-15T11:57:52.808Z,86.46
2019-01-15T12:00:26.281Z,86.40
2019-01-15T12:03:00.693Z,86.49
2019-01-15T12:05:34.778Z,86.57
2019-01-15T12:08:11.552Z,86.58
2019-01-15T12:10:59.180Z,86.44
2019-01-15T12:13:32.907Z,86.58
2019-01-15T12:16:20.004Z,86.48
2019-01-15T12:19:07.376Z,86.64
2019-01-15T12:21:47.549Z,86.49
2019-01-15T12:24:21.749Z,86.54
2019-01-15T12:26:52.965Z,86.48
2019-01-15T12:29:29.878Z,86.79
2019-01-15T12:32:01.129Z,86.71
2019-01-15T12:34:48.346Z,87.05
2019-01-15T12:37:19.542Z,86.89
2019-01-15T12:40:07.524Z,87.20
2019-01-15T12:42:55.246Z,87.20
2019-01-15T12:45:27.490Z,87.20
2019-01-15T12:48:11.106Z,87.39
2019-01-15T12:50:58.191Z,87.27
2019-01-15T12:53:29.388Z,87.44
2019-01-15T12:56:15.598Z,87.40
2019-01-15T12:58:46.776Z,87.40
2019-01-15T13:01:17.944Z,87.36
2019-01-15T13:04:07.195Z,87.35
2019-01-15T13:06:38.317Z,87.47
2019-01-15T13:09:26.293Z,87.39
2019-01-15T13:12:09.189Z,87.45
2019-01-15T13:14:58.379Z,87.53
2019-01-15T13:17:29.727Z,87.47
2019-01-15T13:20:17.302Z,87.78
2019-01-15T13:22:54.186Z,87.83
2019-01-15T13:25:31.025Z,87.65
2019-01-15T13:28:08.307Z,87.70
2019-01-15T13:30:55.543Z,87.54
2019-01-15T13:33:26.804Z,87.48
2019-01-15T13:35:58.289Z,87.62
2019-01-15T13:38:29.573Z,87.65
2019-01-15T13:41:00.838Z,87.69
2019-01-15T13:43:34.878Z,87.65
2019-01-15T13:46:09.396Z,87.69
2019-01-15T13:48:40.645Z,87.75
2019-01-15T13:51:21.252Z,87.60
2019-01-15T13:54:08.647Z,87.63
2019-01-15T13:56:42.360Z,87.59
2019-01-15T13:59:13.696Z,87.59
2019-01-15T14:01:45.026Z,87.65
2019-01-15T14:04:16.337Z,87.40
2019-01-15T14:06:59.567Z,87.40
2019-01-15T14:09:37.117Z,87.46
2019-01-15T14:12:14.272Z,87.47
2019-01-15T14:15:00.791Z,87.60
2019-01-15T14:17:32.234Z,87.83
2019-01-15T14:20:06.892Z,87.72
2019-01-15T14:22:38.139Z,87.79
2019-01-15T14:25:25.989Z,87.74
2019-01-15T14:28:02.963Z,87.49
2019-01-15T14:30:40.051Z,87.72
2019-01-15T14:33:11.208Z,87.68
2019-01-15T14:35:54.610Z,87.68
2019-01-15T14:38:42.171Z,87.72
2019-01-15T14:41:22.667Z,87.47
2019-01-15T14:43:54.005Z,87.78
2019-01-15T14:46:37.639Z,87.69
2019-01-15T14:49:08.788Z,87.61
2019-01-15T14:51:39.937Z,87.59
2019-01-15T14:54:29.401Z,87.57
2019-01-15T14:57:06.652Z,87.83
2019-01-15T14:59:43.309Z,87.85
2019-01-15T15:02:14.641Z,87.75
2019-01-15T15:04:45.924Z,87.90
2019-01-15T15:07:25.731Z,88.03
2019-01-15T15:10:03.242Z,88.13
2019-01-15T15:12:40.595Z,87.81
2019-01-15T15:15:15.066Z,87.80
2019-01-15T15:17:49.265Z,87.89
2019-01-15T15:20:20.747Z,87.89
2019-01-15T15:23:03.788Z,87.77
2019-01-15T15:25:44.123Z,87.85
2019-01-15T15:28:31.402Z,87.75
2019-01-15T15:31:02.816Z,87.80
2019-01-15T15:33:37.258Z,87.98
2019-01-15T15:36:23.803Z,88.09
2019-01-15T15:39:03.736Z,87.97
2019-01-15T15:41:46.791Z,88.28
2019-01-15T15:44:20.765Z,88.13
2019-01-15T15:47:01.122Z,87.81
2019-01-15T15:49:32.379Z,87.92
2019-01-15T15:52:12.224Z,87.99
2019-01-15T15:54:49.696Z,87.82
2019-01-15T15:57:32.910Z,87.55
2019-01-15T16:00:04.319Z,87.43
2019-01-15T16:02:52.358Z,87.13
2019-01-15T16:05:26.432Z,86.91
2019-01-15T16:07:57.822Z,86.95
2019-01-15T16:10:28.980Z,86.91
2019-01-15T16:13:00.141Z,86.80
2019-01-15T16:15:40.702Z,86.84
2019-01-15T16:18:11.983Z,86.72
2019-01-15T16:20:46.214Z,86.67
2019-01-15T16:23:20.331Z,86.57
2019-01-15T16:25:51.553Z,86.56
2019-01-15T16:28:31.876Z,86.41
2019-01-15T16:31:18.111Z,86.50
2019-01-15T16:33:55.523Z,86.32
2019-01-15T16:36:32.556Z,86.34
2019-01-15T16:39:10.668Z,86.14
2019-01-15T16:41:42.007Z,86.26
2019-01-15T16:44:25.297Z,86.15
2019-01-15T16:47:13.110Z,86.13
2019-01-15T16:49:47.338Z,86.04
2019-01-15T16:52:35.340Z,86.06
2019-01-15T16:55:13.370Z,86.37
2019-01-15T16:57:53.656Z,86.30
2019-01-15T17:00:34.066Z,86.22
2019-01-15T17:03:11.184Z,86.23
2019-01-15T17:05:58.542Z,86.02
2019-01-15T17:08:41.660Z,85.88
2019-01-15T17:11:15.974Z,86.06
2019-01-15T17:13:47.396Z,86.11
2019-01-15T17:16:24.322Z,86.06
2019-01-15T17:19:01.565Z,86.06
2019-01-15T17:21:50.997Z,86.27
2019-01-15T17:24:32.278Z,86.33
2019-01-15T17:27:09.320Z,86.16
2019-01-15T17:29:53.037Z,86.33
2019-01-15T17:32:27.208Z,86.07
2019-01-15T17:35:07.730Z,86.09
2019-01-15T17:37:45.083Z,86.06
2019-01-15T17:40:32.631Z,86.25
2019-01-15T17:43:18.993Z,85.87
2019-01-15T17:45:50.678Z,86.03
2019-01-15T17:48:30.965Z,86.17
2019-01-15T17:51:08.249Z,86.33
2019-01-15T17:53:51.090Z,86.14
2019-01-15T17:56:25.346Z,86.15
2019-01-15T17:58:57.835Z,86.09
2019-01-15T18:01:47.370Z,86.36
2019-01-15T18:04:27.986Z,86.10
2019-01-15T18:07:11.323Z,86.00
2019-01-15T18:09:42.568Z,86.07
2019-01-15T18:12:14.056Z,86.11
2019-01-15T18:14:54.448Z,85.63
2019-01-15T18:17:25.793Z,85.77
2019-01-15T18:20:13.231Z,85.76
2019-01-15T18:23:02.610Z,85.86
2019-01-15T18:25:35.546Z,85.91
2019-01-15T18:28:18.612Z,85.98
2019-01-15T18:30:56.222Z,86.18
2019-01-15T18:33:46.200Z,86.00
2019-01-15T18:36:17.611Z,86.09
2019-01-15T18:39:07.775Z,86.20
2019-01-15T18:41:45.138Z,86.27
2019-01-15T18:44:19.257Z,86.18
2019-01-15T18:46:59.503Z,86.01
2019-01-15T18:49:30.636Z,86.05
2019-01-15T18:52:01.838Z,85.97
2019-01-15T18:54:33.068Z,86.29
2019-01-15T18:57:13.406Z,86.20
2019-01-15T18:59:44.566Z,86.22
2019-01-15T19:02:30.708Z,86.25
2019-01-15T19:05:01.843Z,86.43
2019-01-15T19:07:48.031Z,86.65
2019-01-15T19:10:22.063Z,86.53
2019-01-15T19:13:05.227Z,86.62
2019-01-15T19:15:55.193Z,86.46
2019-01-15T19:18:28.620Z,86.50
2019-01-15T19:21:11.758Z,86.47
2019-01-15T19:23:45.617Z,86.77
2019-01-15T19:26:16.809Z,86.84
2019-01-15T19:28:50.942Z,86.73
2019-01-15T19:31:22.088Z,86.83
2019-01-15T19:33:58.916Z,86.93
2019-01-15T19:36:30.191Z,87.18
2019-01-15T19:39:05.222Z,87.24
2019-01-15T19:41:42.276Z,87.24
2019-01-15T19:44:29.552Z,87.25
2019-01-15T19:47:10.675Z,87.21
2019-01-15T19:49:51.212Z,87.38
2019-01-15T19:52:31.492Z,87.37
2019-01-15T19:55:02.643Z,87.37
2019-01-15T19:57:33.768Z,87.53
2019-01-15T20:00:09.262Z,87.56
2019-01-15T20:02:52.660Z,87.54
2019-01-15T20:05:26.687Z,87.79
2019-01-15T20:07:57.827Z,87.82
2019-01-15T20:10:29.196Z,87.78
2019-01-15T20:13:18.368Z,87.91
2019-01-15T20:15:52.302Z,87.95
2019-01-15T20:18:26.134Z,87.92
2019-01-15T20:20:57.384Z,87.96
2019-01-15T20:23:43.726Z,88.08
2019-01-15T20:26:14.940Z,88.18
2019-01-15T20:29:02.455Z,88.28
2019-01-15T20:31:42.458Z,88.69
2019-01-15T20:34:13.767Z,88.85
2019-01-15T20:36:54.120Z,89.01
2019-01-15T20:39:31.124Z,88.93
2019-01-15T20:42:20.619Z,88.87
2019-01-15T20:45:08.160Z,88.65
2019-01-15T20:47:45.414Z,88.75
2019-01-15T20:50:25.715Z,88.78
2019-01-15T20:53:13.188Z,88.83
2019-01-15T20:55:44.612Z,88.87
2019-01-15T20:58:32.526Z,88.96
2019-01-15T21:01:15.443Z,89.09
2019-01-15T21:03:58.593Z,89.09
2019-01-15T21:06:32.524Z,88.96
2019-01-15T21:09:12.951Z,88.69
2019-01-15T21:12:02.302Z,88.77
2019-01-15T21:14:51.864Z,88.85
2019-01-15T21:17:32.704Z,88.88
2019-01-15T21:20:08.577Z,88.88
2019-01-15T21:22:48.710Z,88.83
2019-01-15T21:25:19.853Z,88.85
2019-01-15T21:27:53.529Z,88.81
2019-01-15T21:30:41.495Z,88.80
2019-01-15T21:33:16.180Z,88.56
2019-01-15T21:35:53.142Z,88.68
2019-01-15T21:38:27.096Z,88.55
2019-01-15T21:41:14.451Z,88.28
2019-01-15T21:43:48.039Z,88.32
2019-01-15T21:46:19.168Z,88.44
2019-01-15T21:48:52.809Z,87.99
2019-01-15T21:51:29.890Z,87.70
2019-01-15T21:54:01.057Z,87.86
2019-01-15T21:56:32.288Z,87.82
2019-01-15T21:59:03.542Z,87.53
2019-01-15T22:01:40.663Z,87.53
2019-01-15T22:04:17.262Z,87.72
2019-01-15T22:06:54.306Z,87.80
2019-01-15T22:09:31.043Z,88.00
2019-01-15T22:12:02.212Z,88.16
2019-01-15T22:14:50.050Z,88.25
2019-01-15T22:17:21.184Z,88.13
2019-01-15T22:19:55.001Z,88.01
2019-01-15T22:22:44.394Z,87.93
2019-01-15T22:25:21.239Z,88.04
2019-01-15T22:28:07.306Z,88.03
2019-01-15T22:30:38.453Z,88.15
2019-01-15T22:33:25.782Z,87.87
2019-01-15T22:36:02.884Z,87.69
2019-01-15T22:38:39.730Z,87.51
2019-01-15T22:41:23.192Z,87.28
2019-01-15T22:44:11.134Z,87.08
2019-01-15T22:46:45.173Z,86.96
2019-01-15T22:49:16.299Z,86.47
2019-01-15T22:52:05.509Z,86.58
2019-01-15T22:54:36.627Z,86.13
2019-01-15T22:57:26.153Z,85.86
2019-01-15T23:00:03.222Z,86.18
2019-01-15T23:02:34.422Z,86.36
2019-01-15T23:05:05.558Z,86.04
2019-01-15T23:07:42.601Z,85.91
2019-01-15T23:10:29.884Z,85.78
2019-01-15T23:13:01.148Z,85.70
2019-01-15T23:15:37.788Z,85.88
2019-01-15T23:18:08.958Z,85.91
2019-01-15T23:20:40.080Z,85.85
2019-01-15T23:23:27.614Z,85.81
2019-01-15T23:26:01.480Z,85.46
2019-01-15T23:28:35.076Z,85.55
2019-01-15T23:31:12.748Z,85.47
2019-01-15T23:33:49.704Z,85.44
2019-01-15T23:36:26.675Z,85.55
2019-01-15T23:39:14.132Z,85.41
2019-01-15T23:41:53.837Z,85.16
2019-01-15T23:44:41.079Z,84.58
2019-01-15T23:47:28.721Z,84.98
2019-01-15T23:50:05.602Z,84.93
2019-01-15T23:52:36.751Z,84.87
2019-01-15T23:55:07.998Z,84.92
2019-01-15T23:57:47.939Z,84.85
